createdAt,value
2023-02-05T00:00:25.989Z,1025.97
2023-02-05T00:01:24.975Z,1026.01
2023-02-05T00:02:25.007Z,1025.97
2023-02-05T00:03:24.972Z,1026.04
2023-02-05T00:04:25.923Z,1026.05
2023-02-05T00:05:25.900Z,1026.07
2023-02-05T00:06:24.913Z,1026.09
2023-02-05T00:07:25.957Z,1026.10
2023-02-05T00:08:25.869Z,1026.10
2023-02-05T00:09:24.931Z,1026.12
2023-02-05T00:10:24.878Z,1026.12
2023-02-05T00:11:24.842Z,1026.21
2023-02-05T00:12:24.840Z,1026.20
2023-02-05T00:13:24.849Z,1026.19
2023-02-05T00:14:24.808Z,1026.22
2023-02-05T00:15:24.835Z,1026.18
2023-02-05T00:16:25.872Z,1026.15
2023-02-05T00:17:24.807Z,1026.15
2023-02-05T00:18:24.786Z,1026.14
2023-02-05T00:19:25.761Z,1026.19
2023-02-05T00:20:24.806Z,1026.20
2023-02-05T00:21:24.741Z,1026.15
2023-02-05T00:22:24.710Z,1026.23
2023-02-05T00:23:24.756Z,1026.18
2023-02-05T00:24:24.728Z,1026.20
2023-02-05T00:25:24.747Z,1026.12
2023-02-05T00:26:24.666Z,1026.16
2023-02-05T00:27:24.673Z,1026.20
2023-02-05T00:28:24.653Z,1026.20
2023-02-05T00:29:24.648Z,1026.23
2023-02-05T00:30:25.677Z,1026.30
2023-02-05T00:31:25.554Z,1026.21
2023-02-05T00:32:24.632Z,1026.25
2023-02-05T00:33:24.634Z,1026.26
2023-02-05T00:34:24.618Z,1026.29
2023-02-05T00:35:25.578Z,1026.26
2023-02-05T00:36:24.587Z,1026.28
2023-02-05T00:37:24.623Z,1026.31
2023-02-05T00:38:24.539Z,1026.35
2023-02-05T00:39:24.542Z,1026.33
2023-02-05T00:40:25.537Z,1026.38
2023-02-05T00:41:24.536Z,1026.32
2023-02-05T00:42:25.539Z,1026.27
2023-02-05T00:43:25.479Z,1026.30
2023-02-05T00:44:25.426Z,1026.29
2023-02-05T00:45:24.498Z,1026.27
2023-02-05T00:46:24.479Z,1026.30
2023-02-05T00:47:25.457Z,1026.31
2023-02-05T00:48:24.476Z,1026.30
2023-02-05T00:49:24.468Z,1026.31
2023-02-05T00:50:24.420Z,1026.23
2023-02-05T00:51:24.417Z,1026.22
2023-02-05T00:52:24.405Z,1026.19
2023-02-05T00:53:25.428Z,1026.25
2023-02-05T00:54:24.370Z,1026.26
2023-02-05T00:55:24.432Z,1026.24
2023-02-05T00:56:24.349Z,1026.28
2023-02-05T00:57:24.332Z,1026.26
2023-02-05T00:58:24.332Z,1026.22
2023-02-05T00:59:24.334Z,1026.25
2023-02-05T01:00:24.296Z,1026.22
2023-02-05T01:01:25.386Z,1026.22
2023-02-05T01:02:24.336Z,1026.24
2023-02-05T01:03:24.287Z,1026.32
2023-02-05T01:04:24.299Z,1026.30
2023-02-05T01:05:25.330Z,1026.26
2023-02-05T01:06:24.241Z,1026.22
2023-02-05T01:07:24.264Z,1026.27
2023-02-05T01:08:24.228Z,1026.29
2023-02-05T01:09:24.220Z,1026.25
2023-02-05T01:10:24.215Z,1026.20
2023-02-05T01:11:24.221Z,1026.10
2023-02-05T01:12:25.268Z,1026.04
2023-02-05T01:13:24.176Z,1026.09
2023-02-05T01:14:24.174Z,1026.02
2023-02-05T01:15:25.164Z,1026.08
2023-02-05T01:16:25.142Z,1026.06
2023-02-05T01:17:24.153Z,1026.06
2023-02-05T01:18:24.187Z,1026.10
2023-02-05T01:19:24.096Z,1026.15
2023-02-05T01:20:24.108Z,1026.01
2023-02-05T01:21:24.108Z,1026.06
2023-02-05T01:22:24.078Z,1026.03
2023-02-05T01:23:24.099Z,1025.97
2023-02-05T01:24:24.106Z,1026.03
2023-02-05T01:25:24.133Z,1026.00
2023-02-05T01:26:24.053Z,1025.97
2023-02-05T01:27:24.024Z,1025.95
2023-02-05T01:28:25.010Z,1026.01
2023-02-05T01:29:23.999Z,1025.93
2023-02-05T01:30:25.012Z,1025.88
2023-02-05T01:31:25.190Z,1025.83
2023-02-05T01:32:23.956Z,1025.84
2023-02-05T01:33:23.959Z,1025.76
2023-02-05T01:34:24.932Z,1025.71
2023-02-05T01:35:24.927Z,1025.83
2023-02-05T01:36:24.001Z,1025.68
2023-02-05T01:37:23.924Z,1025.68
2023-02-05T01:38:23.926Z,1025.66
2023-02-05T01:39:24.904Z,1025.68
2023-02-05T01:40:23.885Z,1025.64
2023-02-05T01:41:23.902Z,1025.57
2023-02-05T01:42:23.864Z,1025.50
2023-02-05T01:43:24.845Z,1025.51
2023-02-05T01:44:23.869Z,1025.54
2023-02-05T01:45:23.823Z,1025.49
2023-02-05T01:46:23.934Z,1025.47
2023-02-05T01:47:25.394Z,1025.39
2023-02-05T01:48:23.805Z,1025.39
2023-02-05T01:49:24.767Z,1025.31
2023-02-05T01:50:23.783Z,1025.25
2023-02-05T01:51:24.776Z,1025.28
2023-02-05T01:52:23.761Z,1025.21
2023-02-05T01:53:24.752Z,1025.21
2023-02-05T01:54:23.731Z,1025.22
2023-02-05T01:55:24.706Z,1025.22
2023-02-05T01:56:23.714Z,1025.11
2023-02-05T01:57:24.723Z,1025.16
2023-02-05T01:58:23.695Z,1025.08
2023-02-05T01:59:24.658Z,1025.18
2023-02-05T02:00:23.666Z,1025.07
2023-02-05T02:01:23.704Z,1025.10
2023-02-05T02:02:23.653Z,1025.15
2023-02-05T02:03:23.618Z,1025.10
2023-02-05T02:04:23.599Z,1025.08
2023-02-05T02:05:24.749Z,1025.09
2023-02-05T02:06:23.601Z,1025.11
2023-02-05T02:07:23.594Z,1025.13
2023-02-05T02:08:23.590Z,1025.11
2023-02-05T02:09:24.564Z,1025.13
2023-02-05T02:10:23.549Z,1025.14
2023-02-05T02:11:23.550Z,1025.07
2023-02-05T02:12:23.621Z,1025.11
2023-02-05T02:13:23.533Z,1025.11
2023-02-05T02:14:24.380Z,1025.13
2023-02-05T02:15:23.508Z,1025.15
2023-02-05T02:16:23.548Z,1025.05
2023-02-05T02:17:23.471Z,1025.07
2023-02-05T02:18:23.541Z,1025.16
2023-02-05T02:19:24.462Z,1025.06
2023-02-05T02:20:24.474Z,1025.05
2023-02-05T02:21:23.441Z,1025.11
2023-02-05T02:22:23.432Z,1025.14
2023-02-05T02:23:23.418Z,1025.20
2023-02-05T02:24:24.430Z,1025.11
2023-02-05T02:25:23.401Z,1025.15
2023-02-05T02:26:23.385Z,1025.03
2023-02-05T02:27:23.391Z,1025.05
2023-02-05T02:28:23.338Z,1025.02
2023-02-05T02:29:24.335Z,1024.99
2023-02-05T02:30:23.426Z,1025.05
2023-02-05T02:31:23.364Z,1025.07
2023-02-05T02:32:23.336Z,1024.92
2023-02-05T02:33:23.321Z,1024.98
2023-02-05T02:34:23.284Z,1024.94
2023-02-05T02:35:23.297Z,1024.90
2023-02-05T02:36:23.288Z,1024.83
2023-02-05T02:37:24.297Z,1024.91
2023-02-05T02:38:23.252Z,1024.83
2023-02-05T02:39:23.273Z,1024.88
2023-02-05T02:40:23.209Z,1024.92
2023-02-05T02:41:23.222Z,1024.90
2023-02-05T02:42:23.191Z,1024.88
2023-02-05T02:43:24.201Z,1024.93
2023-02-05T02:44:23.197Z,1024.86
2023-02-05T02:45:23.166Z,1024.87
2023-02-05T02:46:24.226Z,1024.89
2023-02-05T02:47:23.145Z,1024.85
2023-02-05T02:48:23.185Z,1024.90
2023-02-05T02:49:23.129Z,1024.83
2023-02-05T02:50:23.168Z,1024.91
2023-02-05T02:51:24.089Z,1024.85
2023-02-05T02:52:23.086Z,1024.86
2023-02-05T02:53:23.101Z,1024.86
2023-02-05T02:54:23.086Z,1024.76
2023-02-05T02:55:23.070Z,1024.75
2023-02-05T02:56:23.089Z,1024.77
2023-02-05T02:57:23.063Z,1024.76
2023-02-05T02:58:23.050Z,1024.83
2023-02-05T02:59:23.046Z,1024.77
2023-02-05T03:00:23.010Z,1024.85
2023-02-05T03:01:23.020Z,1024.73
2023-02-05T03:02:24.056Z,1024.73
2023-02-05T03:03:22.966Z,1024.76
2023-02-05T03:04:22.975Z,1024.82
2023-02-05T03:05:22.969Z,1024.77
2023-02-05T03:06:22.927Z,1024.78
2023-02-05T03:07:22.935Z,1024.77
2023-02-05T03:08:22.972Z,1024.78
2023-02-05T03:09:22.943Z,1024.72
2023-02-05T03:10:23.932Z,1024.72
2023-02-05T03:11:22.916Z,1024.72
2023-02-05T03:12:23.891Z,1024.72
2023-02-05T03:13:23.889Z,1024.65
2023-02-05T03:14:22.876Z,1024.68
2023-02-05T03:15:22.892Z,1024.63
2023-02-05T03:16:22.932Z,1024.59
2023-02-05T03:17:22.851Z,1024.64
2023-02-05T03:18:22.821Z,1024.63
2023-02-05T03:19:22.816Z,1024.60
2023-02-05T03:20:22.819Z,1024.60
2023-02-05T03:21:22.786Z,1024.53
2023-02-05T03:22:22.829Z,1024.58
2023-02-05T03:23:22.758Z,1024.56
2023-02-05T03:24:23.761Z,1024.58
2023-02-05T03:25:22.760Z,1024.59
2023-02-05T03:26:22.780Z,1024.49
2023-02-05T03:27:22.723Z,1024.50
2023-02-05T03:28:22.686Z,1024.50
2023-02-05T03:29:22.714Z,1024.46
2023-02-05T03:30:22.718Z,1024.37
2023-02-05T03:31:22.737Z,1024.43
2023-02-05T03:32:22.680Z,1024.35
2023-02-05T03:33:22.667Z,1024.35
2023-02-05T03:34:22.628Z,1024.33
2023-02-05T03:35:22.627Z,1024.27
2023-02-05T03:36:22.657Z,1024.30
2023-02-05T03:37:22.624Z,1024.36
2023-02-05T03:38:22.634Z,1024.31
2023-02-05T03:39:22.584Z,1024.32
2023-02-05T03:40:22.584Z,1024.24
2023-02-05T03:41:22.547Z,1024.24
2023-02-05T03:42:23.568Z,1024.31
2023-02-05T03:43:22.575Z,1024.24
2023-02-05T03:44:22.538Z,1024.27
2023-02-05T03:45:22.622Z,1024.25
2023-02-05T03:46:22.503Z,1024.23
2023-02-05T03:47:22.497Z,1024.23
2023-02-05T03:48:22.491Z,1024.32
2023-02-05T03:49:22.520Z,1024.25
2023-02-05T03:50:22.449Z,1024.19
2023-02-05T03:51:22.511Z,1024.25
2023-02-05T03:52:22.513Z,1024.33
2023-02-05T03:53:22.420Z,1024.31
2023-02-05T03:54:22.478Z,1024.24
2023-02-05T03:55:22.394Z,1024.27
2023-02-05T03:56:22.405Z,1024.20
2023-02-05T03:57:23.392Z,1024.22
2023-02-05T03:58:22.393Z,1024.29
2023-02-05T03:59:22.353Z,1024.28
2023-02-05T04:00:22.376Z,1024.27
2023-02-05T04:01:22.502Z,1024.25
2023-02-05T04:02:22.368Z,1024.33
2023-02-05T04:03:22.394Z,1024.36
2023-02-05T04:04:22.293Z,1024.33
2023-02-05T04:05:22.291Z,1024.33
2023-02-05T04:06:23.287Z,1024.28
2023-02-05T04:07:23.270Z,1024.29
2023-02-05T04:08:22.259Z,1024.31
2023-02-05T04:09:22.327Z,1024.24
2023-02-05T04:10:22.243Z,1024.30
2023-02-05T04:11:23.257Z,1024.35
2023-02-05T04:12:23.218Z,1024.33
2023-02-05T04:13:22.198Z,1024.36
2023-02-05T04:14:22.177Z,1024.36
2023-02-05T04:15:22.279Z,1024.37
2023-02-05T04:16:22.241Z,1024.42
2023-02-05T04:17:22.193Z,1024.33
2023-02-05T04:18:22.178Z,1024.34
2023-02-05T04:19:22.137Z,1024.38
2023-02-05T04:20:23.123Z,1024.41
2023-02-05T04:21:22.151Z,1024.41
2023-02-05T04:22:23.109Z,1024.45
2023-02-05T04:23:22.134Z,1024.49
2023-02-05T04:24:22.109Z,1024.58
2023-02-05T04:25:22.124Z,1024.52
2023-02-05T04:26:23.062Z,1024.50
2023-02-05T04:27:22.065Z,1024.49
2023-02-05T04:28:22.050Z,1024.47
2023-02-05T04:29:23.019Z,1024.56
2023-02-05T04:30:22.049Z,1024.46
2023-02-05T04:31:22.097Z,1024.49
2023-02-05T04:32:22.016Z,1024.52
2023-02-05T04:33:22.181Z,1024.50
2023-02-05T04:34:21.983Z,1024.55
2023-02-05T04:35:21.973Z,1024.55
2023-02-05T04:36:23.002Z,1024.53
2023-02-05T04:37:22.954Z,1024.60
2023-02-05T04:38:21.940Z,1024.63
2023-02-05T04:39:22.019Z,1024.70
2023-02-05T04:40:21.922Z,1024.65
2023-02-05T04:41:21.923Z,1024.68
2023-02-05T04:42:22.782Z,1024.59
2023-02-05T04:43:21.884Z,1024.64
2023-02-05T04:44:21.879Z,1024.60
2023-02-05T04:45:21.873Z,1024.62
2023-02-05T04:46:21.923Z,1024.63
2023-02-05T04:47:21.864Z,1024.63
2023-02-05T04:48:21.832Z,1024.66
2023-02-05T04:49:21.837Z,1024.71
2023-02-05T04:50:21.821Z,1024.66
2023-02-05T04:51:21.791Z,1024.65
2023-02-05T04:52:21.802Z,1024.66
2023-02-05T04:53:21.794Z,1024.61
2023-02-05T04:54:21.798Z,1024.61
2023-02-05T04:55:21.767Z,1024.63
2023-02-05T04:56:21.754Z,1024.62
2023-02-05T04:57:22.744Z,1024.67
2023-02-05T04:58:21.729Z,1024.64
2023-02-05T04:59:21.744Z,1024.56
2023-02-05T05:00:22.714Z,1024.64
2023-02-05T05:01:22.747Z,1024.69
2023-02-05T05:02:21.745Z,1024.71
2023-02-05T05:03:21.672Z,1024.68
2023-02-05T05:04:22.694Z,1024.70
2023-02-05T05:05:21.722Z,1024.73
2023-02-05T05:06:21.624Z,1024.72
2023-02-05T05:07:21.636Z,1024.72
2023-02-05T05:08:21.613Z,1024.68
2023-02-05T05:09:21.592Z,1024.67
2023-02-05T05:10:21.658Z,1024.60
2023-02-05T05:11:21.617Z,1024.63
2023-02-05T05:12:21.573Z,1024.63
2023-02-05T05:13:21.583Z,1024.66
2023-02-05T05:14:21.550Z,1024.71
2023-02-05T05:15:21.531Z,1024.70
2023-02-05T05:16:21.629Z,1024.69
2023-02-05T05:17:21.549Z,1024.65
2023-02-05T05:18:22.584Z,1024.66
2023-02-05T05:19:21.500Z,1024.60
2023-02-05T05:20:22.492Z,1024.64
2023-02-05T05:21:22.488Z,1024.60
2023-02-05T05:22:21.486Z,1024.58
2023-02-05T05:23:21.442Z,1024.58
2023-02-05T05:24:21.456Z,1024.66
2023-02-05T05:25:22.432Z,1024.63
2023-02-05T05:26:21.439Z,1024.63
2023-02-05T05:27:21.444Z,1024.59
2023-02-05T05:28:21.417Z,1024.64
2023-02-05T05:29:21.411Z,1024.68
2023-02-05T05:30:21.366Z,1024.67
2023-02-05T05:31:22.467Z,1024.64
2023-02-05T05:32:21.366Z,1024.67
2023-02-05T05:33:21.374Z,1024.70
2023-02-05T05:34:21.377Z,1024.68
2023-02-05T05:35:21.325Z,1024.67
2023-02-05T05:36:21.330Z,1024.65
2023-02-05T05:37:21.373Z,1024.66
2023-02-05T05:38:21.334Z,1024.61
2023-02-05T05:39:23.270Z,1024.68
2023-02-05T05:40:22.261Z,1024.68
2023-02-05T05:41:21.269Z,1024.68
2023-02-05T05:42:21.296Z,1024.70
2023-02-05T05:43:21.232Z,1024.71
2023-02-05T05:44:21.237Z,1024.71
2023-02-05T05:45:21.246Z,1024.66
2023-02-05T05:46:22.246Z,1024.60
2023-02-05T05:47:21.218Z,1024.65
2023-02-05T05:48:21.236Z,1024.56
2023-02-05T05:49:21.247Z,1024.61
2023-02-05T05:50:22.162Z,1024.67
2023-02-05T05:51:21.175Z,1024.57
2023-02-05T05:52:21.154Z,1024.56
2023-02-05T05:53:21.165Z,1024.57
2023-02-05T05:54:21.127Z,1024.61
2023-02-05T05:55:21.150Z,1024.57
2023-02-05T05:56:21.091Z,1024.51
2023-02-05T05:57:21.180Z,1024.53
2023-02-05T05:58:21.084Z,1024.55
2023-02-05T05:59:21.058Z,1024.55
2023-02-05T06:00:21.042Z,1024.53
2023-02-05T06:01:22.132Z,1024.61
2023-02-05T06:02:21.193Z,1024.55
2023-02-05T06:03:21.037Z,1024.48
2023-02-05T06:04:28.711Z,1024.50
2023-02-05T06:05:21.046Z,1024.55
2023-02-05T06:06:20.998Z,1024.47
2023-02-05T06:07:21.054Z,1024.41
2023-02-05T06:08:20.984Z,1024.41
2023-02-05T06:09:20.985Z,1024.34
2023-02-05T06:10:20.938Z,1024.39
2023-02-05T06:11:20.932Z,1024.39
2023-02-05T06:12:20.946Z,1024.36
2023-02-05T06:13:20.944Z,1024.44
2023-02-05T06:14:21.917Z,1024.48
2023-02-05T06:15:21.889Z,1024.44
2023-02-05T06:16:20.955Z,1024.36
2023-02-05T06:17:20.919Z,1024.31
2023-02-05T06:18:22.769Z,1024.36
2023-02-05T06:19:21.900Z,1024.36
2023-02-05T06:20:21.891Z,1024.33
2023-02-05T06:21:20.849Z,1024.36
2023-02-05T06:22:21.812Z,1024.35
2023-02-05T06:23:20.835Z,1024.40
2023-02-05T06:24:20.786Z,1024.37
2023-02-05T06:25:20.819Z,1024.36
2023-02-05T06:26:20.802Z,1024.42
2023-02-05T06:27:20.782Z,1024.35
2023-02-05T06:28:20.778Z,1024.38
2023-02-05T06:29:20.815Z,1024.34
2023-02-05T06:30:20.756Z,1024.30
2023-02-05T06:31:20.844Z,1024.29
2023-02-05T06:32:20.705Z,1024.34
2023-02-05T06:33:20.724Z,1024.25
2023-02-05T06:34:20.716Z,1024.30
2023-02-05T06:35:20.701Z,1024.26
2023-02-05T06:36:20.665Z,1024.27
2023-02-05T06:37:20.651Z,1024.30
2023-02-05T06:38:21.675Z,1024.30
2023-02-05T06:39:20.705Z,1024.24
2023-02-05T06:40:20.626Z,1024.27
2023-02-05T06:41:20.644Z,1024.27
2023-02-05T06:42:20.629Z,1024.26
2023-02-05T06:43:20.584Z,1024.32
2023-02-05T06:44:21.631Z,1024.30
2023-02-05T06:45:20.598Z,1024.31
2023-02-05T06:46:20.620Z,1024.30
2023-02-05T06:47:20.607Z,1024.35
2023-02-05T06:48:20.552Z,1024.40
2023-02-05T06:49:20.531Z,1024.41
2023-02-05T06:50:21.506Z,1024.44
2023-02-05T06:51:21.515Z,1024.44
2023-02-05T06:52:20.484Z,1024.41
2023-02-05T06:53:20.535Z,1024.41
2023-02-05T06:54:20.501Z,1024.41
2023-02-05T06:55:20.466Z,1024.47
2023-02-05T06:56:21.458Z,1024.42
2023-02-05T06:57:21.463Z,1024.40
2023-02-05T06:58:20.490Z,1024.43
2023-02-05T06:59:20.440Z,1024.43
2023-02-05T07:00:20.486Z,1024.43
2023-02-05T07:01:20.446Z,1024.47
2023-02-05T07:02:21.544Z,1024.50
2023-02-05T07:03:20.436Z,1024.46
2023-02-05T07:04:21.373Z,1024.40
2023-02-05T07:05:20.357Z,1024.36
2023-02-05T07:06:21.374Z,1024.43
2023-02-05T07:07:21.354Z,1024.44
2023-02-05T07:08:21.357Z,1024.45
2023-02-05T07:09:21.317Z,1024.39
2023-02-05T07:10:21.329Z,1024.42
2023-02-05T07:11:20.291Z,1024.45
2023-02-05T07:12:20.325Z,1024.42
2023-02-05T07:13:20.351Z,1024.44
2023-02-05T07:14:20.334Z,1024.46
2023-02-05T07:15:20.245Z,1024.44
2023-02-05T07:16:20.325Z,1024.43
2023-02-05T07:17:20.220Z,1024.41
2023-02-05T07:18:20.240Z,1024.46
2023-02-05T07:19:20.206Z,1024.51
2023-02-05T07:20:21.240Z,1024.57
2023-02-05T07:21:20.183Z,1024.47
2023-02-05T07:22:21.209Z,1024.49
2023-02-05T07:23:20.171Z,1024.47
2023-02-05T07:24:21.185Z,1024.42
2023-02-05T07:25:20.151Z,1024.50
2023-02-05T07:26:20.140Z,1024.49
2023-02-05T07:27:20.180Z,1024.49
2023-02-05T07:28:20.161Z,1024.51
2023-02-05T07:29:20.190Z,1024.38
2023-02-05T07:30:20.124Z,1024.38
2023-02-05T07:31:20.205Z,1024.36
2023-02-05T07:32:21.070Z,1024.36
2023-02-05T07:33:20.096Z,1024.37
2023-02-05T07:34:21.116Z,1024.37
2023-02-05T07:35:20.049Z,1024.33
2023-02-05T07:36:20.053Z,1024.31
2023-02-05T07:37:21.524Z,1024.28
2023-02-05T07:38:20.008Z,1024.23
2023-02-05T07:39:19.991Z,1024.25
2023-02-05T07:40:20.031Z,1024.27
2023-02-05T07:41:19.975Z,1024.22
2023-02-05T07:42:20.984Z,1024.23
2023-02-05T07:43:19.955Z,1024.14
2023-02-05T07:44:19.952Z,1024.12
2023-02-05T07:45:21.005Z,1024.09
2023-02-05T07:46:19.956Z,1024.09
2023-02-05T07:47:19.908Z,1024.11
2023-02-05T07:48:19.920Z,1024.07
2023-02-05T07:49:19.904Z,1024.05
2023-02-05T07:50:19.882Z,1024.07
2023-02-05T07:51:20.896Z,1024.08
2023-02-05T07:52:19.897Z,1024.05
2023-02-05T07:53:20.888Z,1024.10
2023-02-05T07:54:20.895Z,1023.99
2023-02-05T07:55:19.820Z,1024.05
2023-02-05T07:56:19.819Z,1024.03
2023-02-05T07:57:19.827Z,1024.02
2023-02-05T07:58:19.824Z,1023.98
2023-02-05T07:59:19.821Z,1023.96
2023-02-05T08:00:19.764Z,1023.92
2023-02-05T08:01:19.845Z,1023.98
2023-02-05T08:02:20.696Z,1023.85
2023-02-05T08:03:19.772Z,1023.89
2023-02-05T08:04:19.789Z,1023.86
2023-02-05T08:05:19.706Z,1023.89
2023-02-05T08:06:20.701Z,1023.91
2023-02-05T08:07:19.750Z,1023.93
2023-02-05T08:08:19.696Z,1023.96
2023-02-05T08:09:19.677Z,1023.93
2023-02-05T08:10:19.707Z,1023.97
2023-02-05T08:11:19.667Z,1023.96
2023-02-05T08:12:19.629Z,1023.99
2023-02-05T08:13:19.658Z,1023.93
2023-02-05T08:14:19.637Z,1023.91
2023-02-05T08:15:19.606Z,1023.93
2023-02-05T08:16:20.654Z,1023.88
2023-02-05T08:17:19.621Z,1023.89
2023-02-05T08:18:19.579Z,1023.85
2023-02-05T08:19:19.602Z,1023.82
2023-02-05T08:20:19.586Z,1023.83
2023-02-05T08:21:19.537Z,1023.80
2023-02-05T08:22:19.632Z,1023.84
2023-02-05T08:23:19.541Z,1023.78
2023-02-05T08:24:19.504Z,1023.83
2023-02-05T08:25:19.533Z,1023.76
2023-02-05T08:26:19.478Z,1023.74
2023-02-05T08:27:19.512Z,1023.73
2023-02-05T08:28:20.462Z,1023.76
2023-02-05T08:29:19.463Z,1023.63
2023-02-05T08:30:20.474Z,1023.67
2023-02-05T08:31:19.504Z,1023.68
2023-02-05T08:32:19.456Z,1023.65
2023-02-05T08:33:19.452Z,1023.66
2023-02-05T08:34:20.906Z,1023.60
2023-02-05T08:35:19.403Z,1023.56
2023-02-05T08:36:19.393Z,1023.57
2023-02-05T08:37:19.439Z,1023.57
2023-02-05T08:38:19.422Z,1023.61
2023-02-05T08:39:19.341Z,1023.58
2023-02-05T08:40:19.351Z,1023.53
2023-02-05T08:41:19.318Z,1023.51
2023-02-05T08:42:19.325Z,1023.59
2023-02-05T08:43:19.342Z,1023.53
2023-02-05T08:44:19.357Z,1023.55
2023-02-05T08:45:20.283Z,1023.52
2023-02-05T08:46:19.330Z,1023.54
2023-02-05T08:47:19.263Z,1023.48
2023-02-05T08:48:20.237Z,1023.46
2023-02-05T08:49:19.243Z,1023.48
2023-02-05T08:50:19.294Z,1023.49
2023-02-05T08:51:19.210Z,1023.49
2023-02-05T08:52:20.220Z,1023.47
2023-02-05T08:53:19.207Z,1023.46
2023-02-05T08:54:19.188Z,1023.43
2023-02-05T08:55:20.228Z,1023.52
2023-02-05T08:56:20.487Z,1023.50
2023-02-05T08:57:20.153Z,1023.54
2023-02-05T08:58:20.148Z,1023.43
2023-02-05T08:59:19.188Z,1023.52
2023-02-05T09:00:19.126Z,1023.56
2023-02-05T09:01:19.152Z,1023.60
2023-02-05T09:02:19.119Z,1023.60
2023-02-05T09:03:19.144Z,1023.55
2023-02-05T09:04:19.130Z,1023.59
2023-02-05T09:05:20.083Z,1023.49
2023-02-05T09:06:19.088Z,1023.49
2023-02-05T09:07:19.050Z,1023.46
2023-02-05T09:08:19.080Z,1023.40
2023-02-05T09:09:19.078Z,1023.51
2023-02-05T09:10:20.032Z,1023.53
2023-02-05T09:11:20.026Z,1023.48
2023-02-05T09:12:20.023Z,1023.52
2023-02-05T09:13:18.983Z,1023.49
2023-02-05T09:14:19.987Z,1023.52
2023-02-05T09:15:18.970Z,1023.50
2023-02-05T09:16:18.967Z,1023.48
2023-02-05T09:17:18.963Z,1023.50
2023-02-05T09:18:18.946Z,1023.55
2023-02-05T09:19:18.922Z,1023.44
2023-02-05T09:20:19.920Z,1023.49
2023-02-05T09:21:18.964Z,1023.48
2023-02-05T09:22:18.877Z,1023.35
2023-02-05T09:23:19.875Z,1023.40
2023-02-05T09:24:19.863Z,1023.43
2023-02-05T09:25:18.844Z,1023.41
2023-02-05T09:26:18.882Z,1023.36
2023-02-05T09:27:18.830Z,1023.36
2023-02-05T09:28:19.968Z,1023.28
2023-02-05T09:29:18.817Z,1023.28
2023-02-05T09:30:18.825Z,1023.24
2023-02-05T09:31:18.912Z,1023.21
2023-02-05T09:32:19.792Z,1023.23
2023-02-05T09:33:18.791Z,1023.13
2023-02-05T09:34:18.766Z,1023.14
2023-02-05T09:35:18.744Z,1023.17
2023-02-05T09:36:18.770Z,1023.14
2023-02-05T09:37:18.733Z,1023.12
2023-02-05T09:38:18.726Z,1023.05
2023-02-05T09:39:52.326Z,1023.13
2023-02-05T09:40:21.469Z,1023.11
2023-02-05T09:41:18.719Z,1023.08
2023-02-05T09:42:19.722Z,1023.08
2023-02-05T09:43:19.659Z,1023.09
2023-02-05T09:44:19.685Z,1023.17
2023-02-05T09:45:19.649Z,1023.20
2023-02-05T09:46:18.668Z,1023.27
2023-02-05T09:47:18.644Z,1023.23
2023-02-05T09:48:18.648Z,1023.24
2023-02-05T09:49:18.605Z,1023.12
2023-02-05T09:50:19.603Z,1023.18
2023-02-05T09:51:18.572Z,1023.17
2023-02-05T09:52:18.563Z,1023.16
2023-02-05T09:53:18.618Z,1023.16
2023-02-05T09:54:18.540Z,1023.10
2023-02-05T09:55:18.536Z,1023.10
2023-02-05T09:56:18.553Z,1023.07
2023-02-05T09:57:18.534Z,1023.10
2023-02-05T09:58:18.526Z,1023.14
2023-02-05T09:59:18.507Z,1023.02
2023-02-05T10:00:18.480Z,1023.08
2023-02-05T10:01:18.501Z,1023.03
2023-02-05T10:02:18.460Z,1023.05
2023-02-05T10:03:18.445Z,1023.05
2023-02-05T10:04:18.566Z,1023.01
2023-02-05T10:05:19.409Z,1022.99
2023-02-05T10:06:18.413Z,1022.96
2023-02-05T10:07:18.383Z,1022.97
2023-02-05T10:08:18.418Z,1022.96
2023-02-05T10:09:19.426Z,1022.93
2023-02-05T10:10:18.401Z,1022.95
2023-02-05T10:11:18.389Z,1022.93
2023-02-05T10:12:19.336Z,1022.96
2023-02-05T10:13:19.326Z,1022.93
2023-02-05T10:14:18.333Z,1022.93
2023-02-05T10:15:18.306Z,1022.91
2023-02-05T10:16:19.355Z,1022.95
2023-02-05T10:17:18.274Z,1022.93
2023-02-05T10:18:18.293Z,1022.98
2023-02-05T10:19:19.260Z,1023.00
2023-02-05T10:20:18.254Z,1023.00
2023-02-05T10:21:18.285Z,1022.96
2023-02-05T10:22:18.273Z,1023.05
2023-02-05T10:23:18.219Z,1023.05
2023-02-05T10:24:18.256Z,1023.11
2023-02-05T10:25:18.204Z,1023.11
2023-02-05T10:26:18.200Z,1023.12
2023-02-05T10:27:18.171Z,1023.18
2023-02-05T10:28:18.289Z,1023.08
2023-02-05T10:29:18.141Z,1023.08
2023-02-05T10:30:18.184Z,1023.10
2023-02-05T10:31:18.235Z,1023.10
2023-02-05T10:32:18.122Z,1023.08
2023-02-05T10:33:18.109Z,1023.03
2023-02-05T10:34:18.145Z,1023.01
2023-02-05T10:35:18.113Z,1023.06
2023-02-05T10:36:19.084Z,1022.95
2023-02-05T10:37:18.085Z,1022.98
2023-02-05T10:38:19.070Z,1022.92
2023-02-05T10:39:18.053Z,1023.00
2023-02-05T10:40:19.076Z,1022.90
2023-02-05T10:41:18.045Z,1022.85
2023-02-05T10:42:18.022Z,1022.89
2023-02-05T10:43:18.036Z,1022.85
2023-02-05T10:44:17.978Z,1022.80
2023-02-05T10:45:19.210Z,1022.85
2023-02-05T10:46:18.005Z,1022.82
2023-02-05T10:47:17.993Z,1022.83
2023-02-05T10:48:18.963Z,1022.81
2023-02-05T10:49:18.939Z,1022.80
2023-02-05T10:50:18.954Z,1022.75
2023-02-05T10:51:18.950Z,1022.77
2023-02-05T10:52:17.892Z,1022.80
2023-02-05T10:53:17.900Z,1022.73
2023-02-05T10:54:17.886Z,1022.78
2023-02-05T10:55:17.890Z,1022.72
2023-02-05T10:56:18.890Z,1022.76
2023-02-05T10:57:17.875Z,1022.73
2023-02-05T10:58:17.840Z,1022.63
2023-02-05T10:59:17.871Z,1022.66
2023-02-05T11:00:17.882Z,1022.64
2023-02-05T11:01:17.899Z,1022.56
2023-02-05T11:02:17.788Z,1022.60
2023-02-05T11:03:18.772Z,1022.57
2023-02-05T11:04:18.763Z,1022.58
2023-02-05T11:05:18.795Z,1022.54
2023-02-05T11:06:18.790Z,1022.47
2023-02-05T11:07:17.729Z,1022.48
2023-02-05T11:08:17.727Z,1022.46
2023-02-05T11:09:17.736Z,1022.51
2023-02-05T11:10:17.701Z,1022.42
2023-02-05T11:11:17.702Z,1022.38
2023-02-05T11:12:17.677Z,1022.43
2023-02-05T11:13:18.730Z,1022.41
2023-02-05T11:14:17.664Z,1022.39
2023-02-05T11:15:17.663Z,1022.33
2023-02-05T11:16:17.703Z,1022.36
2023-02-05T11:17:18.742Z,1022.31
2023-02-05T11:18:17.639Z,1022.34
2023-02-05T11:19:17.799Z,1022.29
2023-02-05T11:20:18.643Z,1022.27
2023-02-05T11:21:17.574Z,1022.27
2023-02-05T11:22:17.613Z,1022.29
2023-02-05T11:23:17.576Z,1022.29
2023-02-05T11:24:17.566Z,1022.26
2023-02-05T11:25:17.552Z,1022.32
2023-02-05T11:26:18.536Z,1022.30
2023-02-05T11:27:18.598Z,1022.27
2023-02-05T11:28:17.547Z,1022.32
2023-02-05T11:29:18.523Z,1022.30
2023-02-05T11:30:19.128Z,1022.35
2023-02-05T11:31:17.577Z,1022.38
2023-02-05T11:32:17.571Z,1022.36
2023-02-05T11:33:18.476Z,1022.36
2023-02-05T11:34:17.439Z,1022.33
2023-02-05T11:35:17.503Z,1022.43
2023-02-05T11:36:17.449Z,1022.39
2023-02-05T11:37:17.428Z,1022.40
2023-02-05T11:38:17.402Z,1022.41
2023-02-05T11:39:17.412Z,1022.47
2023-02-05T11:40:18.602Z,1022.41
2023-02-05T11:41:17.440Z,1022.42
2023-02-05T11:42:17.363Z,1022.40
2023-02-05T11:43:17.353Z,1022.39
2023-02-05T11:44:18.369Z,1022.41
2023-02-05T11:45:17.342Z,1022.38
2023-02-05T11:46:17.447Z,1022.31
2023-02-05T11:47:17.381Z,1022.29
2023-02-05T11:48:17.313Z,1022.28
2023-02-05T11:49:17.287Z,1022.28
2023-02-05T11:50:18.747Z,1022.30
2023-02-05T11:51:17.255Z,1022.23
2023-02-05T11:52:17.249Z,1022.29
2023-02-05T11:53:17.284Z,1022.23
2023-02-05T11:54:17.258Z,1022.31
2023-02-05T11:55:17.217Z,1022.35
2023-02-05T11:56:17.214Z,1022.32
2023-02-05T11:57:17.240Z,1022.26
2023-02-05T11:58:22.269Z,1022.35
2023-02-05T11:59:18.233Z,1022.31
2023-02-05T12:00:18.176Z,1022.31
2023-02-05T12:01:18.165Z,1022.36
2023-02-05T12:02:17.169Z,1022.40
2023-02-05T12:03:17.204Z,1022.44
2023-02-05T12:04:17.118Z,1022.36
2023-02-05T12:05:18.074Z,1022.39